createdAt,value
2022-09-17T00:00:48.007Z,11.84
2022-09-17T00:05:49.525Z,11.87
2022-09-17T00:10:51.019Z,11.91
2022-09-17T00:15:52.606Z,12.00
2022-09-17T00:20:54.389Z,12.00
2022-09-17T00:25:55.873Z,11.99
2022-09-17T00:30:57.379Z,12.02
2022-09-17T00:36:00.940Z,12.12
2022-09-17T00:41:03.742Z,12.11
2022-09-17T00:46:16.209Z,12.06
2022-09-17T00:51:21.352Z,12.11
2022-09-17T00:56:27.125Z,12.11
2022-09-17T01:01:29.132Z,12.14
2022-09-17T01:06:48.553Z,12.11
2022-09-17T01:11:59.315Z,12.05
2022-09-17T01:17:17.256Z,12.10
2022-09-17T01:22:33.192Z,12.22
2022-09-17T01:27:37.700Z,12.12
2022-09-17T01:32:47.000Z,12.16
2022-09-17T01:38:07.683Z,12.17
2022-09-17T01:43:19.865Z,12.20
2022-09-17T01:48:35.904Z,12.11
2022-09-17T01:54:05.516Z,12.15
2022-09-17T01:59:19.615Z,12.15
2022-09-17T02:04:29.425Z,12.24
2022-09-17T02:09:36.833Z,12.12
2022-09-17T02:14:44.910Z,11.90
2022-09-17T02:19:46.489Z,11.80
2022-09-17T02:25:22.112Z,11.74
2022-09-17T02:30:23.664Z,11.81
2022-09-17T02:35:25.531Z,11.76
2022-09-17T02:40:31.664Z,11.60
2022-09-17T02:45:53.415Z,11.60
2022-09-17T02:51:18.263Z,11.67
2022-09-17T02:56:42.972Z,11.77
2022-09-17T03:02:00.938Z,11.92
2022-09-17T03:07:10.962Z,11.88
2022-09-17T03:12:12.520Z,11.66
2022-09-17T03:17:14.043Z,11.57
2022-09-17T03:22:15.637Z,11.63
2022-09-17T03:27:17.269Z,11.73
2022-09-17T03:32:18.791Z,11.67
2022-09-17T03:37:20.601Z,11.63
2022-09-17T03:42:22.089Z,11.73
2022-09-17T03:47:23.580Z,11.70
2022-09-17T03:52:25.117Z,11.71
2022-09-17T03:57:26.893Z,11.76
2022-09-17T04:02:28.442Z,11.82
2022-09-17T04:07:30.083Z,11.87
2022-09-17T04:12:31.720Z,11.84
2022-09-17T04:17:33.220Z,11.89
2022-09-17T04:22:34.727Z,11.92
2022-09-17T04:27:36.258Z,11.71
2022-09-17T04:32:37.865Z,11.59
2022-09-17T04:37:40.467Z,11.59
2022-09-17T04:42:41.992Z,11.54
2022-09-17T04:47:43.584Z,11.54
2022-09-17T04:52:46.409Z,11.53
2022-09-17T04:57:52.887Z,11.62
2022-09-17T05:02:55.273Z,11.59
2022-09-17T05:07:56.757Z,11.63
2022-09-17T05:12:58.426Z,11.68
2022-09-17T05:17:59.943Z,11.66
2022-09-17T05:23:01.450Z,11.51
2022-09-17T05:28:03.124Z,11.62
2022-09-17T05:33:06.344Z,11.69
2022-09-17T05:38:07.867Z,11.83
2022-09-17T05:43:10.104Z,11.83
2022-09-17T05:48:13.996Z,11.82
2022-09-17T05:53:15.499Z,11.82
2022-09-17T05:58:19.363Z,11.98
2022-09-17T06:03:21.463Z,12.17
2022-09-17T06:08:23.148Z,12.35
2022-09-17T06:13:24.715Z,12.61
2022-09-17T06:18:27.676Z,12.85
2022-09-17T06:23:32.705Z,12.71
2022-09-17T06:28:37.872Z,13.64
2022-09-17T06:33:42.206Z,14.07
2022-09-17T06:38:43.744Z,14.40
2022-09-17T06:43:45.272Z,14.76
2022-09-17T06:48:46.814Z,14.77
2022-09-17T06:53:48.573Z,14.21
2022-09-17T06:58:50.116Z,14.22
2022-09-17T07:03:51.657Z,14.02
2022-09-17T07:08:53.192Z,13.68
2022-09-17T07:13:54.730Z,13.50
2022-09-17T07:18:56.200Z,13.45
2022-09-17T07:23:57.861Z,13.74
2022-09-17T07:28:59.488Z,13.96
2022-09-17T07:34:01.015Z,14.14
2022-09-17T07:39:02.605Z,13.92
2022-09-17T07:44:04.107Z,13.90
2022-09-17T07:49:05.586Z,13.77
2022-09-17T07:54:07.201Z,14.34
2022-09-17T07:59:09.751Z,14.24
2022-09-17T08:04:11.408Z,14.28
2022-09-17T08:09:13.041Z,15.08
2022-09-17T08:14:15.590Z,16.82
2022-09-17T08:19:17.121Z,16.41
2022-09-17T08:24:18.656Z,17.19
2022-09-17T08:29:20.241Z,17.28
2022-09-17T08:34:21.840Z,16.78
2022-09-17T08:39:23.355Z,16.25
2022-09-17T08:44:27.471Z,15.64
2022-09-17T08:49:32.082Z,15.72
2022-09-17T08:55:06.264Z,16.47
2022-09-17T09:00:12.565Z,17.08
2022-09-17T09:05:18.296Z,17.33
2022-09-17T09:10:42.183Z,17.58
2022-09-17T09:15:47.678Z,17.84
2022-09-17T09:21:20.795Z,18.05
2022-09-17T09:27:07.318Z,17.51
2022-09-17T09:32:32.205Z,18.62
2022-09-17T09:37:39.102Z,18.62
2022-09-17T09:42:40.649Z,17.95
2022-09-17T09:48:00.210Z,17.12
2022-09-17T09:53:47.968Z,16.13
2022-09-17T09:58:49.520Z,17.90
2022-09-17T10:03:52.531Z,17.52
2022-09-17T10:08:57.210Z,18.77
2022-09-17T10:14:14.969Z,18.64
2022-09-17T10:19:21.196Z,19.00
2022-09-17T10:24:27.074Z,18.12
2022-09-17T10:29:28.815Z,17.76
2022-09-17T10:34:32.569Z,18.55
2022-09-17T10:39:37.953Z,19.75
2022-09-17T10:44:51.413Z,19.90
2022-09-17T10:49:59.737Z,21.01
2022-09-17T10:55:18.910Z,20.24
2022-09-17T11:00:22.503Z,19.06
2022-09-17T11:05:54.810Z,21.33
2022-09-17T11:11:16.577Z,20.96
2022-09-17T11:16:34.142Z,18.15
2022-09-17T11:22:05.217Z,18.76
2022-09-17T11:27:34.177Z,19.67
2022-09-17T11:32:38.498Z,19.94
2022-09-17T11:37:44.517Z,20.77
2022-09-17T11:42:56.122Z,20.59
2022-09-17T11:48:11.853Z,20.44
2022-09-17T11:53:32.379Z,19.92
2022-09-17T11:58:39.991Z,15.39
2022-09-17T12:03:49.382Z,12.39
2022-09-17T12:09:01.671Z,12.84
2022-09-17T12:14:34.188Z,14.13
2022-09-17T12:19:51.531Z,15.10
2022-09-17T12:24:54.379Z,16.00
2022-09-17T12:30:08.681Z,16.21
2022-09-17T12:35:46.670Z,16.99
2022-09-17T12:41:04.020Z,16.47
2022-09-17T12:46:17.687Z,15.79
2022-09-17T12:51:54.889Z,15.21
2022-09-17T12:57:05.518Z,14.35
2022-09-17T13:02:34.038Z,13.14
2022-09-17T13:08:20.896Z,13.58
2022-09-17T13:13:49.011Z,13.55
2022-09-17T13:19:27.925Z,14.16
2022-09-17T13:24:30.971Z,14.45
2022-09-17T13:30:01.823Z,14.12
2022-09-17T13:35:15.279Z,12.84
2022-09-17T13:40:34.070Z,11.92
2022-09-17T13:45:58.739Z,11.20
2022-09-17T13:51:31.439Z,11.17
2022-09-17T13:56:38.388Z,11.09
2022-09-17T14:01:49.046Z,11.35
2022-09-17T14:06:51.712Z,11.44
2022-09-17T14:11:53.357Z,11.65
2022-09-17T14:16:57.456Z,13.56
2022-09-17T14:22:24.903Z,14.78
2022-09-17T14:27:51.635Z,15.31
2022-09-17T14:32:56.047Z,15.70
2022-09-17T14:38:16.839Z,16.40
2022-09-17T14:43:35.551Z,14.65
2022-09-17T14:48:40.034Z,14.26
2022-09-17T14:53:41.588Z,12.85
2022-09-17T14:58:52.674Z,12.18
2022-09-17T15:04:12.699Z,12.51
2022-09-17T15:09:25.701Z,13.39
2022-09-17T15:14:30.476Z,13.18
2022-09-17T15:19:36.387Z,13.35
2022-09-17T15:24:47.771Z,13.46
2022-09-17T15:30:06.441Z,13.15
2022-09-17T15:35:14.328Z,13.05
2022-09-17T15:40:34.017Z,12.97
2022-09-17T15:45:35.726Z,13.03
2022-09-17T15:50:53.753Z,13.06
2022-09-17T15:56:06.255Z,12.76
2022-09-17T16:01:16.993Z,12.74
2022-09-17T16:06:18.618Z,13.03
2022-09-17T16:11:22.406Z,13.80
2022-09-17T16:16:29.104Z,14.29
2022-09-17T16:21:30.732Z,13.88
2022-09-17T16:26:34.990Z,13.93
2022-09-17T16:31:36.544Z,13.77
2022-09-17T16:36:38.189Z,13.50
2022-09-17T16:41:39.759Z,13.23
2022-09-17T16:46:41.663Z,13.36
2022-09-17T16:51:43.265Z,13.51
2022-09-17T16:56:44.840Z,13.36
2022-09-17T17:01:46.421Z,13.05
2022-09-17T17:06:47.915Z,12.87
2022-09-17T17:11:49.436Z,12.72
2022-09-17T17:16:51.019Z,12.57
2022-09-17T17:21:53.349Z,12.53
2022-09-17T17:26:54.841Z,12.44
2022-09-17T17:31:56.319Z,12.41
2022-09-17T17:36:58.835Z,12.42
2022-09-17T17:42:00.427Z,12.20
2022-09-17T17:47:01.947Z,12.19
2022-09-17T17:52:03.501Z,12.08
2022-09-17T17:57:05.076Z,11.96
2022-09-17T18:02:06.964Z,12.00
2022-09-17T18:07:08.623Z,12.03
2022-09-17T18:12:10.169Z,12.02
2022-09-17T18:17:11.653Z,11.90
2022-09-17T18:22:13.204Z,11.88
2022-09-17T18:27:14.778Z,11.89
2022-09-17T18:32:16.261Z,12.12
2022-09-17T18:37:17.781Z,12.29
2022-09-17T18:42:19.307Z,12.37
2022-09-17T18:47:20.805Z,12.42
2022-09-17T18:52:22.323Z,12.49
2022-09-17T18:57:23.828Z,12.48
2022-09-17T19:02:25.523Z,12.42
2022-09-17T19:07:27.354Z,12.53
2022-09-17T19:12:30.117Z,12.51
2022-09-17T19:17:31.667Z,12.52
2022-09-17T19:22:33.147Z,12.57
2022-09-17T19:27:34.683Z,12.73
2022-09-17T19:32:36.287Z,12.96
2022-09-17T19:37:37.781Z,13.19
2022-09-17T19:42:39.267Z,13.26
2022-09-17T19:47:40.779Z,13.28
2022-09-17T19:52:42.338Z,13.41
2022-09-17T19:57:43.849Z,13.33
2022-09-17T20:02:45.446Z,13.37
2022-09-17T20:07:46.932Z,13.34
2022-09-17T20:12:48.452Z,13.29
2022-09-17T20:17:49.976Z,13.35
2022-09-17T20:22:51.553Z,13.35
2022-09-17T20:27:53.297Z,13.35
2022-09-17T20:32:55.196Z,13.33
2022-09-17T20:43:18.257Z,13.44
2022-09-17T20:48:20.124Z,13.43
2022-09-17T20:53:21.623Z,13.43
2022-09-17T20:58:24.116Z,13.52
2022-09-17T21:03:25.592Z,13.47
2022-09-17T21:08:28.024Z,13.43
2022-09-17T21:13:29.534Z,13.49
2022-09-17T21:18:34.178Z,13.47
2022-09-17T21:23:39.346Z,13.42
2022-09-17T21:28:42.452Z,13.39
2022-09-17T21:33:45.110Z,13.36
2022-09-17T21:38:51.173Z,13.32
2022-09-17T21:43:53.004Z,13.33
2022-09-17T21:48:56.929Z,13.33
2022-09-17T21:54:01.859Z,13.31
2022-09-17T21:59:08.755Z,13.29
2022-09-17T22:04:12.292Z,13.28
2022-09-17T22:09:20.063Z,13.20
2022-09-17T22:14:23.648Z,13.18
2022-09-17T22:19:26.007Z,13.12
2022-09-17T22:24:27.744Z,13.00
2022-09-17T22:29:29.228Z,12.96
2022-09-17T22:34:30.730Z,12.97
2022-09-17T22:39:32.290Z,12.77
2022-09-17T22:44:33.809Z,12.75
2022-09-17T22:49:35.309Z,12.74
2022-09-17T22:54:36.770Z,12.80
2022-09-17T22:59:38.332Z,12.73
2022-09-17T23:04:39.822Z,12.79
2022-09-17T23:09:41.327Z,12.81
2022-09-17T23:14:42.822Z,12.83
2022-09-17T23:19:44.310Z,12.87
2022-09-17T23:24:45.882Z,12.87
2022-09-17T23:29:47.340Z,12.86
2022-09-17T23:34:48.825Z,12.92
2022-09-17T23:39:50.317Z,12.93
2022-09-17T23:44:51.862Z,12.91
2022-09-17T23:49:53.404Z,12.90
2022-09-17T23:54:58.289Z,12.98
